Time;durP1;ratioP1;P1;durP2;ratioP2;P2;SDS_P1;SDS_P2;PMS_P1;PMS_P2;Temp;Humidity;BMP_temperature;BMP_pressure;BME280_temperature;BME280_humidity;BME280_pressure;Samples;Min_cycle;Max_cycle;Signal;HPM_P1;HPM_P2
2022/01/24 00:01:07;;;;;;;11.37;8.40;;;5.70;99.90;;;;;;5042752;28;20222;-45
2022/01/24 00:03:34;;;;;;;13.07;8.73;;;5.70;99.90;;;;;;5041278;28;20915;-44
2022/01/24 00:06:03;;;;;;;13.97;8.20;;;5.70;99.90;;;;;;5043391;28;20643;-44
2022/01/24 00:08:31;;;;;;;10.83;8.27;;;5.70;99.90;;;;;;5040169;28;20202;-43
2022/01/24 00:11:04;;;;;;;10.77;9.00;;;5.70;99.90;;;;;;5062982;28;20198;-45
2022/01/24 00:16:25;;;;;;;11.77;8.10;;;5.70;99.90;;;;;;5026653;28;20238;-44
2022/01/24 00:27:08;;;;;;;10.10;7.43;;;5.60;99.90;;;;;;5044221;28;20194;-48
2022/01/24 00:29:34;;;;;;;8.57;7.30;;;5.70;99.90;;;;;;5046781;28;20954;-44
2022/01/24 00:32:01;;;;;;;9.40;7.30;;;5.60;99.90;;;;;;5052785;28;20199;-48
2022/01/24 00:34:28;;;;;;;8.30;6.90;;;5.60;99.90;;;;;;5046508;28;20187;-43
2022/01/24 00:36:56;;;;;;;9.07;6.50;;;5.60;99.90;;;;;;5036548;28;20256;-44
2022/01/24 00:39:24;;;;;;;7.97;6.70;;;5.60;99.90;;;;;;5058461;28;20214;-43
2022/01/24 00:42:03;;;;;;;7.77;6.97;;;5.60;99.90;;;;;;5045789;28;20918;-44
2022/01/24 00:44:46;;;;;;;8.53;6.63;;;5.60;99.90;;;;;;5042699;28;20217;-41
2022/01/24 00:47:20;;;;;;;9.63;7.13;;;5.60;99.90;;;;;;5058458;28;20202;-45
2022/01/24 00:49:55;;;;;;;8.90;7.10;;;5.60;99.90;;;;;;5048240;28;20194;-43
2022/01/24 00:55:10;;;;;;;8.73;6.43;;;5.60;99.90;;;;;;5031247;28;20258;-43
2022/01/24 00:57:36;;;;;;;10.83;6.17;;;5.60;99.90;;;;;;5056599;28;20207;-43
2022/01/24 01:00:05;;;;;;;10.13;6.13;;;5.60;99.90;;;;;;5040514;28;20213;-44
2022/01/24 01:02:32;;;;;;;7.57;5.87;;;5.60;99.90;;;;;;5053661;28;20213;-43
2022/01/24 01:05:20;;;;;;;6.03;5.27;;;5.60;99.90;;;;;;5047463;28;21151;-43
2022/01/24 01:07:56;;;;;;;6.67;5.97;;;5.60;99.90;;;;;;5053540;28;20203;-43
2022/01/24 01:18:38;;;;;;;9.33;5.97;;;5.50;99.90;;;;;;5058655;28;20205;-45
2022/01/24 01:21:10;;;;;;;8.60;5.27;;;5.50;99.90;;;;;;5048598;28;20199;-44
2022/01/24 01:23:45;;;;;;;9.67;6.33;;;5.50;99.90;;;;;;5045251;28;20614;-46
2022/01/24 01:26:20;;;;;;;6.87;5.93;;;5.50;99.90;;;;;;5055245;28;20309;-43
2022/01/24 01:28:50;;;;;;;8.10;6.30;;;5.50;99.90;;;;;;5053738;28;20186;-45
2022/01/24 01:31:27;;;;;;;8.37;6.40;;;5.50;99.90;;;;;;5050262;28;20210;-44
2022/01/24 01:34:04;;;;;;;7.50;6.10;;;5.50;99.90;;;;;;5053051;28;20191;-46
2022/01/24 01:36:58;;;;;;;9.97;6.67;;;5.50;99.90;;;;;;5050939;28;20214;-48
2022/01/24 01:39:53;;;;;;;9.07;6.43;;;5.50;99.90;;;;;;5046972;28;20206;-46
2022/01/24 01:53:46;;;;;;;8.23;5.80;;;5.50;99.90;;;;;;5065436;28;20197;-42
2022/01/24 01:56:14;;;;;;;7.80;6.03;;;5.50;99.90;;;;;;5049450;28;20578;-45
2022/01/24 01:58:41;;;;;;;6.37;5.77;;;5.50;99.90;;;;;;5049498;28;20210;-46
2022/01/24 02:01:08;;;;;;;7.77;6.13;;;5.50;99.90;;;;;;5055084;28;20195;-42
2022/01/24 02:03:35;;;;;;;7.80;6.17;;;5.50;99.90;;;;;;5046252;28;20672;-42
2022/01/24 02:06:01;;;;;;;9.20;5.90;;;5.50;99.90;;;;;;5048950;28;20219;-43
2022/01/24 02:08:31;;;;;;;6.67;5.90;;;5.50;99.90;;;;;;5045201;28;20203;-46
2022/01/24 02:10:58;;;;;;;6.60;5.70;;;5.50;99.90;;;;;;5045497;28;21085;-42
2022/01/24 02:13:29;;;;;;;6.37;5.50;;;5.50;99.90;;;;;;5048998;28;20194;-42
2022/01/24 02:16:05;;;;;;;6.87;5.80;;;5.50;99.90;;;;;;5044949;28;20222;-46
2022/01/24 02:18:39;;;;;;;7.93;6.50;;;5.40;99.90;;;;;;5042711;28;20229;-43
2022/01/24 02:21:11;;;;;;;7.17;6.47;;;5.50;99.90;;;;;;5042958;28;21035;-46
2022/01/24 02:23:43;;;;;;;6.87;5.43;;;5.50;99.90;;;;;;5062627;28;20277;-42
2022/01/24 02:26:15;;;;;;;6.93;5.87;;;5.50;99.90;;;;;;5044748;28;20702;-45
2022/01/24 02:31:47;;;;;;;6.90;5.93;;;5.40;99.90;;;;;;5026194;28;20211;-43
2022/01/24 02:34:28;;;;;;;8.27;6.73;;;5.40;99.90;;;;;;5040596;28;20206;-42
2022/01/24 02:36:58;;;;;;;9.27;7.00;;;5.40;99.90;;;;;;5049368;28;20222;-44
2022/01/24 02:39:45;;;;;;;7.13;6.43;;;5.40;99.90;;;;;;5045393;28;20203;-46
2022/01/24 02:50:52;;;;;;;7.90;6.70;;;5.40;99.90;;;;;;5049552;28;20282;-41
2022/01/24 02:53:19;;;;;;;8.97;6.30;;;5.40;99.90;;;;;;5041119;28;20819;-45
2022/01/24 02:55:48;;;;;;;8.27;7.20;;;5.40;99.90;;;;;;5048964;28;20609;-41
2022/01/24 02:58:16;;;;;;;8.43;6.57;;;5.40;99.90;;;;;;5046610;28;20199;-43
2022/01/24 03:00:46;;;;;;;10.30;7.80;;;5.40;99.90;;;;;;5046035;28;20611;-42
2022/01/24 03:03:13;;;;;;;7.43;6.00;;;5.40;99.90;;;;;;5029986;28;22140;-45
2022/01/24 03:05:40;;;;;;;7.33;6.47;;;5.40;99.90;;;;;;5049988;28;20219;-45
2022/01/24 03:08:07;;;;;;;12.00;8.10;;;5.40;99.90;;;;;;5045887;28;20210;-42
2022/01/24 03:10:38;;;;;;;8.53;7.13;;;5.40;99.90;;;;;;5044071;28;20278;-41
2022/01/24 03:13:19;;;;;;;9.23;7.03;;;5.40;99.90;;;;;;5045886;28;20203;-44
2022/01/24 03:15:47;;;;;;;12.50;7.00;;;5.40;99.90;;;;;;5063460;28;20225;-42
2022/01/24 03:18:15;;;;;;;8.37;6.83;;;5.40;99.90;;;;;;5038089;28;20365;-44
2022/01/24 03:20:43;;;;;;;9.07;7.10;;;5.40;99.90;;;;;;5058402;28;20222;-43
2022/01/24 03:23:12;;;;;;;8.40;6.70;;;5.40;99.90;;;;;;5046770;28;20199;-43
2022/01/24 03:25:38;;;;;;;8.53;6.43;;;5.40;99.90;;;;;;5057869;28;20223;-45
2022/01/24 03:28:08;;;;;;;6.73;5.87;;;5.40;99.90;;;;;;5044407;28;20206;-46
2022/01/24 03:30:36;;;;;;;7.37;5.77;;;5.30;99.90;;;;;;5044991;28;20195;-45
2022/01/24 03:33:04;;;;;;;11.50;6.40;;;5.30;99.90;;;;;;5042223;28;20199;-42
2022/01/24 03:35:32;;;;;;;6.77;6.07;;;5.40;99.90;;;;;;5034602;28;20920;-43
2022/01/24 03:37:58;;;;;;;9.40;5.87;;;5.30;99.90;;;;;;5055110;28;20652;-42
2022/01/24 03:40:25;;;;;;;7.77;6.33;;;5.30;99.90;;;;;;5060612;28;20195;-44
2022/01/24 03:42:52;;;;;;;6.40;5.30;;;5.30;99.90;;;;;;5051410;28;20200;-44
2022/01/24 03:45:25;;;;;;;6.93;6.23;;;5.40;99.90;;;;;;5057354;28;20218;-45
2022/01/24 03:48:05;;;;;;;6.50;5.63;;;5.30;99.90;;;;;;5063025;28;20248;-43
2022/01/24 03:50:32;;;;;;;7.33;6.10;;;5.30;99.90;;;;;;5035946;28;20729;-46
2022/01/24 03:52:59;;;;;;;7.07;5.83;;;5.30;99.90;;;;;;5049906;28;20191;-47
2022/01/24 03:55:26;;;;;;;8.37;6.00;;;5.30;99.90;;;;;;5041712;28;20215;-43
2022/01/24 03:57:53;;;;;;;7.63;5.77;;;5.30;99.90;;;;;;5054968;28;21954;-46
2022/01/24 04:00:21;;;;;;;8.77;5.87;;;5.30;99.90;;;;;;5040818;28;20206;-44
2022/01/24 04:02:48;;;;;;;6.63;5.93;;;5.30;99.90;;;;;;5043446;28;20714;-44
2022/01/24 04:05:15;;;;;;;6.73;6.03;;;5.30;99.90;;;;;;5034643;28;20310;-43
2022/01/24 04:07:42;;;;;;;7.20;6.20;;;5.20;99.90;;;;;;5049686;28;20203;-42
2022/01/24 04:10:11;;;;;;;7.03;5.83;;;5.20;99.90;;;;;;5040230;28;20222;-47
2022/01/24 04:12:40;;;;;;;8.23;6.33;;;5.20;99.90;;;;;;5043754;28;20234;-42
2022/01/24 04:15:24;;;;;;;8.70;6.63;;;5.20;99.90;;;;;;5049481;28;20306;-46
2022/01/24 04:18:10;;;;;;;12.27;7.33;;;5.20;99.90;;;;;;5062579;28;20210;-43
2022/01/24 04:23:22;;;;;;;10.43;6.73;;;5.20;99.90;;;;;;5046207;28;20182;-45
2022/01/24 04:25:49;;;;;;;7.50;6.27;;;5.10;99.90;;;;;;5049501;28;20271;-45
2022/01/24 04:28:16;;;;;;;7.00;5.87;;;5.10;99.90;;;;;;5050224;28;20202;-44
2022/01/24 04:30:42;;;;;;;9.57;6.87;;;5.10;99.90;;;;;;5036288;28;20222;-46
2022/01/24 04:33:10;;;;;;;10.20;7.00;;;5.10;99.90;;;;;;5051420;28;20194;-45
2022/01/24 04:35:37;;;;;;;7.93;6.37;;;5.10;99.90;;;;;;5052271;28;20215;-48
2022/01/24 04:38:03;;;;;;;13.73;8.60;;;5.10;99.90;;;;;;5038570;28;20194;-43
2022/01/24 04:40:30;;;;;;;8.43;5.60;;;5.10;99.90;;;;;;5045560;28;20199;-44
2022/01/24 04:43:06;;;;;;;9.73;6.50;;;5.10;99.90;;;;;;5058585;28;20198;-43
2022/01/24 04:45:59;;;;;;;8.00;6.40;;;5.10;99.90;;;;;;5052415;28;20207;-45
2022/01/24 04:51:27;;;;;;;10.50;6.27;;;5.10;99.90;;;;;;5053915;28;20190;-47
2022/01/24 04:54:26;;;;;;;9.90;5.43;;;5.10;99.90;;;;;;5036191;28;20224;-46
2022/01/24 04:56:52;;;;;;;9.53;6.00;;;5.00;99.90;;;;;;5041359;28;20305;-46
2022/01/24 04:59:18;;;;;;;10.27;6.10;;;5.00;99.90;;;;;;5046281;28;20218;-43
2022/01/24 05:01:45;;;;;;;7.27;5.97;;;5.00;99.90;;;;;;5042289;28;20203;-42
2022/01/24 05:04:15;;;;;;;39.73;9.77;;;5.00;99.90;;;;;;5051305;28;20600;-45
2022/01/24 05:06:42;;;;;;;30.13;11.50;;;5.00;99.90;;;;;;5044509;28;20241;-44
2022/01/24 05:09:09;;;;;;;27.60;10.00;;;5.00;99.90;;;;;;5042496;28;20206;-42
2022/01/24 05:11:43;;;;;;;20.23;9.27;;;5.00;99.90;;;;;;5041118;28;20188;-43
2022/01/24 05:25:06;;;;;;;41.63;14.73;;;5.00;99.90;;;;;;5039439;28;20226;-43
2022/01/24 05:27:33;;;;;;;13.40;8.13;;;5.00;99.90;;;;;;5053641;28;20195;-42
2022/01/24 05:30:00;;;;;;;12.37;7.60;;;4.90;99.90;;;;;;5050131;28;20206;-44
2022/01/24 05:32:27;;;;;;;9.43;7.60;;;5.00;99.90;;;;;;5039764;28;20203;-45
2022/01/24 05:34:55;;;;;;;10.00;7.60;;;5.00;99.90;;;;;;5048817;28;20234;-41
2022/01/24 05:37:22;;;;;;;10.13;6.80;;;4.90;99.90;;;;;;5053850;28;20195;-44
2022/01/24 05:39:49;;;;;;;12.73;7.57;;;5.00;99.90;;;;;;5039401;28;20203;-43
2022/01/24 05:42:21;;;;;;;12.73;7.97;;;4.90;99.90;;;;;;5052220;28;20617;-41
2022/01/24 05:44:49;;;;;;;18.43;8.53;;;5.00;99.90;;;;;;5045562;28;20198;-46
2022/01/24 05:47:15;;;;;;;12.87;8.17;;;5.00;99.90;;;;;;5045760;28;20310;-41
2022/01/24 05:49:43;;;;;;;14.53;8.63;;;5.00;99.90;;;;;;5049064;28;20199;-41
2022/01/24 05:52:12;;;;;;;43.27;12.93;;;4.90;99.90;;;;;;5045129;28;20273;-43
2022/01/24 05:54:39;;;;;;;17.90;8.63;;;5.00;99.90;;;;;;5032820;28;20285;-42
2022/01/24 05:57:08;;;;;;;13.57;8.20;;;4.90;99.90;;;;;;5047862;28;20192;-43
2022/01/24 05:59:35;;;;;;;14.53;8.63;;;4.90;99.90;;;;;;5051424;28;20184;-43
2022/01/24 06:02:04;;;;;;;13.00;8.53;;;4.90;99.90;;;;;;5046435;28;20560;-47
2022/01/24 06:04:31;;;;;;;11.83;8.23;;;4.90;99.90;;;;;;5046892;28;20203;-44
2022/01/24 06:06:58;;;;;;;10.13;7.90;;;4.90;99.90;;;;;;5049767;28;20634;-50
2022/01/24 06:09:26;;;;;;;13.20;8.43;;;4.90;99.90;;;;;;5055196;28;20207;-46
2022/01/24 06:11:53;;;;;;;13.03;8.20;;;4.90;99.90;;;;;;5033996;28;20204;-46
2022/01/24 06:14:19;;;;;;;11.50;8.40;;;4.90;99.90;;;;;;5056082;28;20202;-41
2022/01/24 06:16:46;;;;;;;10.77;7.80;;;4.90;99.90;;;;;;5051106;28;20957;-43
2022/01/24 06:19:13;;;;;;;11.30;8.27;;;4.90;99.90;;;;;;5046983;28;20211;-48
2022/01/24 06:21:40;;;;;;;13.27;8.03;;;4.90;99.90;;;;;;5049222;28;20583;-47
2022/01/24 06:24:08;;;;;;;9.93;8.57;;;4.90;99.90;;;;;;5051542;28;20210;-45
2022/01/24 06:26:36;;;;;;;12.03;8.60;;;4.90;99.90;;;;;;5036914;28;20381;-43
2022/01/24 06:29:03;;;;;;;10.60;7.67;;;4.90;99.90;;;;;;5049357;28;20274;-47
2022/01/24 06:31:30;;;;;;;12.50;9.27;;;4.90;99.90;;;;;;5049877;28;20905;-45
2022/01/24 06:33:58;;;;;;;11.23;8.23;;;4.90;99.90;;;;;;5053663;28;20194;-46
2022/01/24 06:36:25;;;;;;;11.90;8.43;;;4.90;99.90;;;;;;5047905;28;20590;-45
2022/01/24 06:38:53;;;;;;;11.50;8.50;;;4.90;99.90;;;;;;5048616;28;20714;-46
2022/01/24 06:41:25;;;;;;;13.33;8.60;;;4.90;99.90;;;;;;5041328;28;20612;-42
2022/01/24 06:43:53;;;;;;;15.20;9.27;;;4.90;99.90;;;;;;5053621;28;20195;-43
2022/01/24 06:46:20;;;;;;;9.77;7.70;;;4.90;99.90;;;;;;5048777;28;20580;-45
2022/01/24 06:48:46;;;;;;;12.20;8.30;;;4.90;99.90;;;;;;5056237;28;20900;-45
2022/01/24 06:51:13;;;;;;;12.73;8.83;;;4.80;99.90;;;;;;5043916;28;20218;-42
2022/01/24 06:53:41;;;;;;;12.50;8.43;;;4.90;99.90;;;;;;5052067;28;21036;-43
2022/01/24 06:56:09;;;;;;;8.70;7.33;;;4.90;99.90;;;;;;5041080;28;20227;-46
2022/01/24 06:58:37;;;;;;;15.97;8.73;;;4.80;99.90;;;;;;5040161;28;20204;-44
2022/01/24 07:01:06;;;;;;;13.73;8.77;;;4.80;99.90;;;;;;5051467;28;20206;-44
2022/01/24 07:03:32;;;;;;;11.00;7.63;;;4.80;99.90;;;;;;5044591;28;20203;-43
2022/01/24 07:06:00;;;;;;;14.33;8.90;;;4.80;99.90;;;;;;5048647;28;20220;-45
2022/01/24 07:08:27;;;;;;;14.13;8.67;;;4.80;99.90;;;;;;5040978;28;20231;-43
2022/01/24 07:10:54;;;;;;;13.73;8.93;;;4.80;99.90;;;;;;5045701;28;20229;-40
2022/01/24 07:13:21;;;;;;;11.73;7.93;;;4.80;99.90;;;;;;5040454;28;20195;-41
2022/01/24 07:15:52;;;;;;;12.33;8.63;;;4.80;99.90;;;;;;5039146;28;20227;-41
2022/01/24 07:21:06;;;;;;;15.53;10.27;;;4.80;99.90;;;;;;5045632;28;20217;-43
2022/01/24 07:23:34;;;;;;;16.33;10.63;;;4.80;99.90;;;;;;5039482;28;20265;-43
2022/01/24 07:26:01;;;;;;;16.37;10.80;;;4.80;99.90;;;;;;5048575;28;20578;-44
2022/01/24 07:28:28;;;;;;;20.87;12.20;;;4.80;99.90;;;;;;5029260;28;20213;-42
2022/01/24 07:30:55;;;;;;;16.47;10.40;;;4.90;99.90;;;;;;5046119;28;20194;-40
2022/01/24 07:33:23;;;;;;;18.27;11.03;;;4.90;99.90;;;;;;5046691;28;20206;-41
2022/01/24 07:35:50;;;;;;;20.97;11.73;;;4.90;99.90;;;;;;5044375;28;20227;-45
2022/01/24 07:38:16;;;;;;;16.53;11.73;;;4.90;99.90;;;;;;5049495;28;20206;-43
2022/01/24 07:40:47;;;;;;;19.17;11.70;;;5.00;99.90;;;;;;5046904;28;20206;-42
2022/01/24 07:43:15;;;;;;;19.93;12.20;;;4.90;99.90;;;;;;5043094;28;20660;-42
2022/01/24 07:45:45;;;;;;;19.63;11.73;;;5.00;99.90;;;;;;5028504;28;20230;-41
2022/01/24 07:48:13;;;;;;;18.00;11.13;;;4.90;99.90;;;;;;5052438;28;20206;-42
2022/01/24 07:50:46;;;;;;;17.97;12.07;;;5.00;99.90;;;;;;5043205;28;20205;-42
2022/01/24 07:53:15;;;;;;;19.13;11.97;;;5.00;99.90;;;;;;5042355;28;20211;-43
2022/01/24 07:55:42;;;;;;;19.57;12.77;;;4.90;99.90;;;;;;5054826;28;20223;-44
2022/01/24 07:58:09;;;;;;;20.13;13.00;;;4.90;99.90;;;;;;5053356;28;20199;-43
2022/01/24 08:00:37;;;;;;;19.13;11.90;;;5.00;99.90;;;;;;5035732;28;20235;-44
2022/01/24 08:03:04;;;;;;;24.47;14.53;;;5.00;99.90;;;;;;5053999;28;20294;-44
2022/01/24 08:05:31;;;;;;;25.60;14.57;;;5.00;99.90;;;;;;5046116;28;20865;-43
2022/01/24 08:07:59;;;;;;;25.07;14.70;;;5.00;99.90;;;;;;5042661;28;20718;-44
2022/01/24 08:10:27;;;;;;;26.43;16.40;;;4.90;99.90;;;;;;5052081;28;20199;-43
2022/01/24 08:12:54;;;;;;;30.40;17.23;;;5.00;99.90;;;;;;5044943;28;20210;-44
2022/01/24 08:15:20;;;;;;;34.67;19.07;;;4.90;99.90;;;;;;5028886;28;20219;-42
2022/01/24 08:17:48;;;;;;;31.47;18.63;;;5.00;99.90;;;;;;5047369;28;20206;-44
2022/01/24 08:20:16;;;;;;;37.60;19.30;;;5.00;99.90;;;;;;5040652;28;20756;-43
2022/01/24 08:22:43;;;;;;;32.70;18.37;;;5.00;99.90;;;;;;5046170;28;20218;-47
2022/01/24 08:25:12;;;;;;;34.07;20.40;;;5.00;99.90;;;;;;5039110;28;20225;-46
2022/01/24 08:27:39;;;;;;;37.17;20.87;;;5.00;99.90;;;;;;5042165;28;20223;-44
2022/01/24 08:30:09;;;;;;;35.63;19.90;;;5.00;99.90;;;;;;5046496;28;20729;-44
2022/01/24 08:32:36;;;;;;;36.97;18.93;;;5.00;99.90;;;;;;5031215;28;20199;-42
2022/01/24 08:35:03;;;;;;;35.00;20.13;;;5.00;99.90;;;;;;5036489;28;20230;-44
2022/01/24 08:37:31;;;;;;;36.83;19.63;;;5.00;99.90;;;;;;5036108;28;20191;-44
2022/01/24 08:39:58;;;;;;;41.10;21.43;;;5.00;99.90;;;;;;5038090;28;20202;-43
2022/01/24 08:42:34;;;;;;;38.33;22.37;;;5.00;99.90;;;;;;5042335;28;20199;-47
2022/01/24 08:47:45;;;;;;;39.33;22.43;;;5.10;99.90;;;;;;5040343;28;20778;-43
2022/01/24 08:50:11;;;;;;;38.27;20.43;;;5.10;99.90;;;;;;5042586;28;20205;-45
2022/01/24 08:52:38;;;;;;;39.00;21.37;;;5.10;99.90;;;;;;5052425;28;20195;-43
2022/01/24 08:55:06;;;;;;;39.23;21.63;;;5.10;99.90;;;;;;5042154;28;20218;-43
2022/01/24 08:57:34;;;;;;;39.70;22.73;;;5.10;99.90;;;;;;5057381;28;20203;-42
2022/01/24 09:00:01;;;;;;;37.80;21.60;;;5.10;99.90;;;;;;5040543;28;20223;-43
2022/01/24 09:02:28;;;;;;;37.40;21.03;;;5.10;99.90;;;;;;5039107;28;20604;-44
2022/01/24 09:04:55;;;;;;;35.83;21.03;;;5.10;99.90;;;;;;5047848;28;20217;-42
2022/01/24 09:07:23;;;;;;;35.47;21.47;;;5.10;99.90;;;;;;5050166;28;20632;-45
2022/01/24 09:09:50;;;;;;;37.83;21.80;;;5.10;99.90;;;;;;5050734;28;20580;-47
2022/01/24 09:12:16;;;;;;;42.13;23.10;;;5.10;99.90;;;;;;5047810;28;20199;-45
2022/01/24 09:14:47;;;;;;;37.40;22.30;;;5.10;99.90;;;;;;5050014;28;20194;-45
2022/01/24 09:17:15;;;;;;;42.10;22.57;;;5.10;99.90;;;;;;5042412;28;20300;-46
2022/01/24 09:19:42;;;;;;;38.60;23.27;;;5.10;99.90;;;;;;5051091;28;20289;-45
2022/01/24 09:22:10;;;;;;;44.13;22.37;;;5.10;99.90;;;;;;5041973;28;21802;-42
2022/01/24 09:24:58;;;;;;;38.63;23.27;;;5.10;99.90;;;;;;5046444;28;20252;-44
2022/01/24 09:27:26;;;;;;;39.90;22.93;;;5.20;99.90;;;;;;5049717;28;20302;-45
2022/01/24 09:29:54;;;;;;;42.63;22.97;;;5.20;99.90;;;;;;5049821;28;20230;-47
2022/01/24 09:32:21;;;;;;;41.53;24.20;;;5.20;99.90;;;;;;5039530;28;20199;-43
2022/01/24 09:34:48;;;;;;;40.00;21.83;;;5.20;99.90;;;;;;5059991;28;20281;-43
2022/01/24 09:37:15;;;;;;;43.63;24.00;;;5.20;99.90;;;;;;5047683;28;20191;-49
2022/01/24 09:39:43;;;;;;;44.73;23.73;;;5.20;99.90;;;;;;5043196;28;20207;-44
2022/01/24 09:42:10;;;;;;;40.13;22.80;;;5.20;99.90;;;;;;5059641;28;20203;-50
2022/01/24 09:44:37;;;;;;;43.87;23.57;;;5.20;99.90;;;;;;5046988;28;20573;-43
2022/01/24 09:47:05;;;;;;;39.93;21.53;;;5.20;99.90;;;;;;5039479;28;20218;-45
2022/01/24 09:49:32;;;;;;;41.93;23.50;;;5.20;99.90;;;;;;5054852;28;20228;-44
2022/01/24 09:51:59;;;;;;;41.10;23.33;;;5.20;99.90;;;;;;5049460;28;20195;-44
2022/01/24 09:54:26;;;;;;;40.47;23.53;;;5.20;99.90;;;;;;5043261;28;20238;-44
2022/01/24 09:56:52;;;;;;;43.97;22.90;;;5.20;99.90;;;;;;5046665;28;20215;-42
2022/01/24 09:59:19;;;;;;;39.07;22.53;;;5.20;99.90;;;;;;5050153;28;20901;-44
2022/01/24 10:01:46;;;;;;;44.10;24.80;;;5.20;99.90;;;;;;5049880;28;20195;-50
2022/01/24 10:04:17;;;;;;;43.33;22.57;;;5.20;99.90;;;;;;5036957;28;20207;-43
2022/01/24 10:06:57;;;;;;;41.47;23.67;;;5.20;99.90;;;;;;5048478;28;20294;-43
2022/01/24 10:09:32;;;;;;;43.00;24.50;;;5.30;99.90;;;;;;5047331;28;20572;-45
2022/01/24 10:12:09;;;;;;;45.27;23.93;;;5.20;99.90;;;;;;5060369;28;20689;-43
2022/01/24 10:17:26;;;;;;;43.37;23.00;;;5.30;99.90;;;;;;5028824;28;20199;-43
2022/01/24 10:19:54;;;;;;;47.07;24.67;;;5.20;99.90;;;;;;5048350;28;20573;-45
2022/01/24 10:22:25;;;;;;;39.13;22.20;;;5.30;99.90;;;;;;5046777;28;21019;-46
2022/01/24 10:24:54;;;;;;;44.00;23.00;;;5.30;99.90;;;;;;5039625;28;20211;-46
2022/01/24 10:27:24;;;;;;;42.50;24.23;;;5.30;99.90;;;;;;5048705;28;20240;-44
2022/01/24 10:29:54;;;;;;;43.53;24.57;;;5.30;99.90;;;;;;5049374;28;20548;-43
2022/01/24 10:32:36;;;;;;;50.23;25.57;;;5.30;99.90;;;;;;5040717;28;21940;-43
2022/01/24 10:35:30;;;;;;;46.70;25.67;;;5.30;99.90;;;;;;5045093;28;20668;-46
2022/01/24 10:38:22;;;;;;;41.30;22.20;;;5.30;99.90;;;;;;5047072;28;20203;-44
2022/01/24 10:40:52;;;;;;;49.07;25.73;;;5.30;99.90;;;;;;5047359;28;20733;-45
2022/01/24 10:43:22;;;;;;;46.27;25.00;;;5.30;99.90;;;;;;5052558;28;20202;-45
2022/01/24 10:45:49;;;;;;;52.53;26.17;;;5.40;99.90;;;;;;5053302;28;20233;-45
2022/01/24 10:48:22;;;;;;;45.93;25.53;;;5.40;99.90;;;;;;5041124;28;22223;-45
2022/01/24 10:51:04;;;;;;;45.73;23.37;;;5.30;99.90;;;;;;5055306;28;20297;-45
2022/01/24 10:53:36;;;;;;;45.57;24.60;;;5.40;99.90;;;;;;5050311;28;20290;-44
2022/01/24 10:56:03;;;;;;;49.37;24.53;;;5.30;99.90;;;;;;5032580;28;20235;-44
2022/01/24 10:58:36;;;;;;;45.20;25.17;;;5.30;99.90;;;;;;5052065;28;20233;-44
2022/01/24 11:01:06;;;;;;;46.80;26.07;;;5.30;99.90;;;;;;5048688;28;20668;-46
2022/01/24 11:03:33;;;;;;;47.57;25.80;;;5.40;99.90;;;;;;5038918;28;20211;-49
2022/01/24 11:06:02;;;;;;;46.60;23.73;;;5.40;99.90;;;;;;5049133;28;20215;-46
2022/01/24 11:08:30;;;;;;;46.87;25.33;;;5.40;99.90;;;;;;5044654;28;20688;-43
2022/01/24 11:10:57;;;;;;;51.27;26.47;;;5.40;99.90;;;;;;5046676;28;20854;-46
2022/01/24 11:13:30;;;;;;;48.37;25.77;;;5.30;99.90;;;;;;5046121;28;20197;-45
2022/01/24 11:16:00;;;;;;;44.77;24.50;;;5.30;99.90;;;;;;5057472;28;20227;-49
2022/01/24 11:18:27;;;;;;;53.30;26.43;;;5.40;99.90;;;;;;5041730;28;20347;-46
2022/01/24 11:21:01;;;;;;;50.37;25.10;;;5.40;99.90;;;;;;5054147;28;20203;-45
2022/01/24 11:23:30;;;;;;;52.47;27.00;;;5.40;99.90;;;;;;5049392;28;20693;-46
2022/01/24 11:25:58;;;;;;;53.03;26.87;;;5.40;99.90;;;;;;5047244;28;20229;-44
2022/01/24 11:28:26;;;;;;;50.00;26.73;;;5.40;99.90;;;;;;5044763;28;20210;-46
2022/01/24 11:30:58;;;;;;;50.10;25.33;;;5.40;99.90;;;;;;5050631;28;20199;-43
2022/01/24 11:33:34;;;;;;;51.00;27.13;;;5.40;99.90;;;;;;5048991;28;20891;-44
2022/01/24 11:36:02;;;;;;;47.77;24.67;;;5.40;99.90;;;;;;5036235;28;20586;-42
2022/01/24 11:38:32;;;;;;;48.53;25.10;;;5.40;99.90;;;;;;5050673;28;20199;-44
2022/01/24 11:41:01;;;;;;;43.57;24.03;;;5.40;99.90;;;;;;5045756;28;20214;-42
2022/01/24 11:43:32;;;;;;;51.87;25.43;;;5.40;99.90;;;;;;5045012;28;20199;-43
2022/01/24 11:46:05;;;;;;;52.77;25.57;;;5.40;99.90;;;;;;5049346;28;20214;-43
2022/01/24 11:48:33;;;;;;;48.63;24.67;;;5.40;99.90;;;;;;5050630;28;20233;-42
2022/01/24 11:51:05;;;;;;;49.37;26.07;;;5.40;99.90;;;;;;5036252;28;20337;-44
2022/01/24 11:53:38;;;;;;;49.13;24.93;;;5.40;99.90;;;;;;5047566;28;20195;-41
2022/01/24 11:56:25;;;;;;;46.57;25.40;;;5.40;99.90;;;;;;5037079;28;20225;-44
2022/01/24 11:59:19;;;;;;;50.17;26.17;;;5.40;99.90;;;;;;5046050;28;20565;-47
2022/01/24 12:01:52;;;;;;;47.43;26.17;;;5.40;99.90;;;;;;5046978;28;20202;-45
2022/01/24 12:04:48;;;;;;;52.10;27.00;;;5.40;99.90;;;;;;5046472;28;20230;-41
2022/01/24 12:07:21;;;;;;;47.40;27.43;;;5.40;99.90;;;;;;5047971;28;20209;-43
2022/01/24 12:09:49;;;;;;;50.97;26.43;;;5.40;99.90;;;;;;5038847;28;20194;-43
2022/01/24 12:12:44;;;;;;;55.73;28.17;;;5.40;99.90;;;;;;5041273;28;20577;-43
2022/01/24 12:15:32;;;;;;;47.23;27.27;;;5.40;99.90;;;;;;5040766;28;20726;-42
2022/01/24 12:18:01;;;;;;;59.57;27.57;;;5.50;99.90;;;;;;5047418;28;20249;-43
2022/01/24 12:20:49;;;;;;;48.20;25.90;;;5.50;99.90;;;;;;5053428;28;20687;-42
2022/01/24 12:23:37;;;;;;;53.93;26.00;;;5.40;99.90;;;;;;5060212;28;20206;-44
2022/01/24 12:26:07;;;;;;;52.83;27.77;;;5.40;99.90;;;;;;5046901;28;20317;-43
2022/01/24 12:28:45;;;;;;;49.87;24.57;;;5.40;99.90;;;;;;5035432;28;20226;-41
2022/01/24 12:31:20;;;;;;;48.93;25.30;;;5.40;99.90;;;;;;5048883;28;20202;-42
2022/01/24 12:34:00;;;;;;;52.40;25.17;;;5.30;99.90;;;;;;5038449;28;20614;-49
2022/01/24 12:37:12;;;;;;;45.67;24.43;;;5.30;99.90;;;;;;5041386;28;20226;-44
2022/01/24 12:39:48;;;;;;;51.37;22.83;;;5.30;99.90;;;;;;5050344;28;20235;-44
2022/01/24 12:42:20;;;;;;;41.80;24.07;;;5.30;99.90;;;;;;5047151;28;20221;-43
2022/01/24 12:47:37;;;;;;;40.07;21.43;;;5.30;99.90;;;;;;5043671;28;20203;-43
2022/01/24 12:50:07;;;;;;;40.67;22.17;;;5.30;99.90;;;;;;5050175;28;20754;-43
2022/01/24 12:52:34;;;;;;;36.03;20.53;;;5.30;99.90;;;;;;5032270;28;20207;-43
2022/01/24 12:55:02;;;;;;;33.47;19.57;;;5.30;99.90;;;;;;5050733;28;20960;-43
2022/01/24 12:57:37;;;;;;;38.30;19.97;;;5.30;99.90;;;;;;5039239;28;20418;-45
2022/01/24 13:00:08;;;;;;;32.57;18.57;;;5.30;99.90;;;;;;5049146;28;20451;-43
2022/01/24 13:02:37;;;;;;;35.03;20.07;;;5.30;99.90;;;;;;5044925;28;20207;-43
2022/01/24 13:05:08;;;;;;;35.40;19.67;;;5.30;99.90;;;;;;5046349;28;20214;-43
2022/01/24 13:07:36;;;;;;;28.03;17.93;;;5.30;99.90;;;;;;5041619;28;20206;-45
2022/01/24 13:10:07;;;;;;;33.60;19.33;;;5.30;99.90;;;;;;5049580;28;20206;-43
2022/01/24 13:12:34;;;;;;;32.87;19.73;;;5.20;99.90;;;;;;5040308;28;20215;-47
2022/01/24 13:15:04;;;;;;;31.90;17.30;;;5.30;99.90;;;;;;5046845;28;20219;-42
2022/01/24 13:20:48;;;;;;;22.67;15.23;;;5.20;99.90;;;;;;5041217;28;20262;-45
2022/01/24 13:23:21;;;;;;;26.73;15.50;;;5.20;99.90;;;;;;5032643;28;20215;-45
2022/01/24 13:25:49;;;;;;;26.93;16.27;;;5.20;99.90;;;;;;5042895;28;20237;-45
2022/01/24 13:28:19;;;;;;;24.97;15.93;;;5.30;99.90;;;;;;5043266;28;20309;-42
2022/01/24 13:30:48;;;;;;;27.40;17.13;;;5.30;99.90;;;;;;5042991;28;20195;-45
2022/01/24 13:33:18;;;;;;;26.97;16.67;;;5.30;99.90;;;;;;5041900;28;20728;-45
2022/01/24 13:35:48;;;;;;;27.90;16.43;;;5.30;99.90;;;;;;5043644;28;20219;-45
2022/01/24 13:38:18;;;;;;;23.40;16.23;;;5.30;99.90;;;;;;5053304;28;20202;-44
2022/01/24 13:40:54;;;;;;;26.23;15.67;;;5.30;99.90;;;;;;5039043;28;20210;-45
2022/01/24 13:43:34;;;;;;;25.93;17.30;;;5.30;99.90;;;;;;5043046;28;20253;-47
2022/01/24 13:46:01;;;;;;;26.00;15.47;;;5.30;99.90;;;;;;5048935;28;20229;-49
2022/01/24 13:48:29;;;;;;;24.77;15.87;;;5.30;99.90;;;;;;5052281;28;20222;-48
2022/01/24 13:51:00;;;;;;;27.40;17.17;;;5.30;99.90;;;;;;5048598;28;20199;-50
2022/01/24 13:53:35;;;;;;;28.27;17.00;;;5.20;99.90;;;;;;5054166;28;20561;-47
2022/01/24 13:56:27;;;;;;;29.50;16.63;;;5.30;99.90;;;;;;5036416;28;20242;-47
2022/01/24 13:59:03;;;;;;;28.63;17.30;;;5.30;99.90;;;;;;5043724;28;20249;-45
2022/01/24 14:01:31;;;;;;;26.50;16.87;;;5.20;99.90;;;;;;5044022;28;20226;-47
2022/01/24 14:04:00;;;;;;;24.23;16.20;;;5.20;99.90;;;;;;5049633;28;20206;-45
2022/01/24 14:06:31;;;;;;;26.37;15.87;;;5.20;99.90;;;;;;5048947;28;20234;-47
2022/01/24 14:09:07;;;;;;;24.80;15.57;;;5.20;99.90;;;;;;5042706;28;20258;-45
2022/01/24 14:11:41;;;;;;;26.50;15.20;;;5.20;99.90;;;;;;5038689;28;20206;-48
2022/01/24 14:14:12;;;;;;;24.30;16.07;;;5.20;99.90;;;;;;5043652;28;20213;-47
2022/01/24 14:16:49;;;;;;;27.73;16.17;;;5.20;99.90;;;;;;5047988;28;20249;-45